Time;durP1;ratioP1;P1;durP2;ratioP2;P2;SDS_P1;SDS_P2;PMS_P1;PMS_P2;Temp;Humidity;BMP_temperature;BMP_pressure;BME280_temperature;BME280_humidity;BME280_pressure;Samples;Min_cycle;Max_cycle;Signal;HPM_P1;HPM_P2
2021/10/22 00:02:15;;;;;;;5.22;1.42;;;;;;;6.81;69.00;99558.75;10464265;28;20053;-75
2021/10/22 00:07:17;;;;;;;8.65;1.65;;;;;;;6.85;68.53;99569.13;10465405;28;20131;-75
2021/10/22 00:12:18;;;;;;;10.25;1.52;;;;;;;6.74;68.92;99577.22;10463922;28;20049;-76
2021/10/22 00:17:21;;;;;;;4.88;1.23;;;;;;;6.74;68.76;99585.06;10462529;28;20049;-76
2021/10/22 00:22:22;;;;;;;9.48;2.30;;;;;;;6.75;68.26;99592.00;10462491;28;20087;-75
2021/10/22 00:27:24;;;;;;;10.55;1.80;;;;;;;6.70;68.36;99594.72;10445477;28;20060;-76
2021/10/22 00:32:25;;;;;;;8.48;1.40;;;;;;;6.75;68.52;99594.59;10463002;28;20052;-74
2021/10/22 00:37:27;;;;;;;8.68;1.35;;;;;;;6.59;68.98;99599.31;10463244;28;20048;-75
2021/10/22 00:42:29;;;;;;;6.88;1.50;;;;;;;6.51;69.48;99604.72;10463273;28;20452;-70
2021/10/22 00:47:30;;;;;;;9.48;2.00;;;;;;;6.49;69.46;99611.72;10461078;28;20103;-70
2021/10/22 00:52:32;;;;;;;8.75;2.33;;;;;;;6.51;69.67;99619.53;10461775;28;20395;-69
2021/10/22 00:57:34;;;;;;;8.10;1.80;;;;;;;6.44;70.00;99618.81;10462120;28;20045;-70
2021/10/22 01:02:37;;;;;;;7.30;2.08;;;;;;;6.48;69.71;99620.44;10461832;28;20098;-70
2021/10/22 01:07:41;;;;;;;10.40;2.05;;;;;;;6.45;69.97;99628.34;10461974;28;20048;-70
2021/10/22 01:12:43;;;;;;;11.50;1.60;;;;;;;6.38;70.23;99615.47;10461061;28;20064;-71
2021/10/22 01:17:47;;;;;;;8.82;2.10;;;;;;;6.38;69.98;99624.16;10461621;28;20107;-71
2021/10/22 01:22:51;;;;;;;8.73;1.85;;;;;;;6.27;70.78;99628.72;10460175;28;20044;-70
2021/10/22 01:27:54;;;;;;;11.05;1.88;;;;;;;6.30;70.88;99624.31;10460009;28;20052;-71
2021/10/22 01:33:01;;;;;;;9.13;1.50;;;;;;;6.36;70.26;99631.16;10460281;28;20041;-71
2021/10/22 01:38:03;;;;;;;;;;;;;;;6.30;70.36;99632.16;10460420;28;20041;-71
2021/10/22 01:43:04;;;;;;;5.45;1.60;;;;;;;6.30;70.49;99636.50;10458808;28;19921;-71
2021/10/22 01:48:06;;;;;;;8.40;1.40;;;;;;;6.22;70.85;99634.06;10459264;28;20041;-71
2021/10/22 01:53:10;;;;;;;13.80;2.15;;;;;;;6.27;70.61;99633.94;10458571;28;20490;-72
2021/10/22 01:58:12;;;;;;;12.57;1.80;;;;;;;6.26;70.37;99635.72;10460310;28;20095;-72
2021/10/22 02:03:14;;;;;;;5.45;1.83;;;;;;;6.27;70.42;99639.19;10457444;28;20467;-72
2021/10/22 02:08:15;;;;;;;6.20;1.83;;;;;;;6.33;70.17;99646.91;10457903;28;20044;-72
2021/10/22 02:13:17;;;;;;;9.10;1.55;;;;;;;6.25;70.15;99651.41;10456353;28;20045;-72
2021/10/22 02:18:18;;;;;;;9.95;2.17;;;;;;;6.27;70.41;99644.41;10457459;28;20491;-71
2021/10/22 02:29:54;;;;;;;4.40;1.00;;;;;;;6.19;70.45;99641.06;10457363;28;20045;-72
2021/10/22 02:34:57;;;;;;;6.65;1.33;;;;;;;6.19;70.50;99646.28;10456633;28;20068;-72
2021/10/22 02:39:58;;;;;;;5.80;1.38;;;;;;;6.16;70.54;99651.59;10439252;28;20053;-72
2021/10/22 02:45:02;;;;;;;8.52;2.35;;;;;;;6.17;70.34;99645.47;10458029;28;20414;-72
2021/10/22 02:50:04;;;;;;;8.75;2.03;;;;;;;6.24;69.95;99654.88;10455504;28;20053;-72
2021/10/22 02:55:06;;;;;;;8.15;1.52;;;;;;;6.16;70.48;99654.22;10455508;28;20060;-73
2021/10/22 03:00:11;;;;;;;8.57;1.83;;;;;;;6.10;70.46;99662.13;10455705;28;20049;-72
2021/10/22 03:05:14;;;;;;;8.55;2.13;;;;;;;6.16;70.10;99667.25;10460370;28;20041;-72
2021/10/22 03:10:15;;;;;;;10.07;1.38;;;;;;;6.20;69.75;99659.34;10464706;28;20529;-73
2021/10/22 03:15:17;;;;;;;5.65;1.55;;;;;;;6.20;69.72;99674.13;10463347;28;20090;-73
2021/10/22 03:20:19;;;;;;;8.27;1.88;;;;;;;6.12;69.98;99676.03;10465751;28;20110;-71
2021/10/22 03:25:20;;;;;;;6.20;1.67;;;;;;;6.01;70.48;99674.47;10464730;28;20043;-71
2021/10/22 03:30:25;;;;;;;10.48;1.65;;;;;;;5.91;71.18;99678.13;10465518;28;20043;-71
2021/10/22 03:35:27;;;;;;;9.38;1.70;;;;;;;5.90;71.40;99684.22;10462878;28;20144;-71
2021/10/22 03:40:28;;;;;;;6.65;1.67;;;;;;;5.96;71.02;99684.13;10464571;28;20048;-73
2021/10/22 03:45:30;;;;;;;9.95;1.30;;;;;;;5.97;70.51;99685.00;10463234;28;20459;-73
2021/10/22 03:50:32;;;;;;;8.43;1.55;;;;;;;6.01;70.39;99681.44;10464473;28;20072;-73
2021/10/22 03:55:33;;;;;;;6.35;1.30;;;;;;;6.06;70.32;99690.94;10463663;28;20037;-74
2021/10/22 04:00:37;;;;;;;9.82;1.40;;;;;;;6.09;69.46;99683.91;10464003;28;20044;-70
2021/10/22 04:05:39;;;;;;;6.30;1.50;;;;;;;6.02;69.76;99691.88;10463693;28;20041;-70
2021/10/22 04:10:42;;;;;;;7.63;1.70;;;;;;;5.94;69.88;99693.75;10462556;28;20052;-71
2021/10/22 04:15:44;;;;;;;5.85;1.38;;;;;;;6.01;69.93;99702.31;10462221;28;20060;-70
2021/10/22 04:20:45;;;;;;;5.70;1.35;;;;;;;5.98;70.06;99697.16;10463056;28;20101;-72
2021/10/22 04:25:49;;;;;;;7.57;1.60;;;;;;;6.00;69.68;99696.25;10463160;28;20398;-71
2021/10/22 04:30:50;;;;;;;9.10;2.15;;;;;;;5.94;69.97;99703.34;10462609;28;20498;-71
2021/10/22 04:35:52;;;;;;;11.43;1.75;;;;;;;5.96;69.73;99686.75;10462720;28;20055;-71
2021/10/22 04:40:55;;;;;;;8.02;1.77;;;;;;;5.96;69.11;99681.53;10462174;28;20044;-71
2021/10/22 04:45:57;;;;;;;5.88;1.25;;;;;;;5.91;69.73;99693.75;10462389;28;20384;-71
2021/10/22 04:50:59;;;;;;;6.03;1.45;;;;;;;5.92;69.53;99681.59;10461948;28;20121;-72
2021/10/22 04:56:02;;;;;;;6.53;1.40;;;;;;;5.94;69.29;99698.97;10462015;28;20051;-70
2021/10/22 05:01:04;;;;;;;10.13;2.10;;;;;;;6.03;68.81;99701.41;10461575;28;20056;-70
2021/10/22 05:06:06;;;;;;;7.22;1.50;;;;;;;6.06;68.48;99713.50;10461321;28;20041;-70
2021/10/22 05:11:08;;;;;;;7.07;1.90;;;;;;;5.96;68.79;99698.94;10461706;28;20041;-70
2021/10/22 05:16:09;;;;;;;7.78;1.40;;;;;;;5.93;68.92;99697.25;10460539;28;20053;-70
2021/10/22 05:21:12;;;;;;;6.20;1.88;;;;;;;5.92;68.80;99699.88;10461954;28;20037;-70
2021/10/22 05:26:14;;;;;;;10.63;1.70;;;;;;;5.92;68.73;99702.47;10460702;28;20494;-72
2021/10/22 05:31:15;;;;;;;6.13;2.40;;;;;;;5.93;68.70;99698.97;10460828;28;20041;-70
2021/10/22 05:36:17;;;;;;;4.63;1.55;;;;;;;5.90;68.81;99706.84;10461172;28;20095;-72
2021/10/22 05:41:19;;;;;;;5.97;1.95;;;;;;;5.96;68.15;99693.72;10460496;28;20053;-70
2021/10/22 05:46:20;;;;;;;6.93;1.83;;;;;;;5.85;68.57;99704.31;10460304;28;20060;-71
2021/10/22 05:51:23;;;;;;;6.63;1.83;;;;;;;6.01;67.62;99713.59;10459922;28;20056;-71
2021/10/22 05:56:24;;;;;;;9.10;2.35;;;;;;;5.99;67.74;99710.19;10458649;28;20449;-71
2021/10/22 06:01:26;;;;;;;8.93;1.65;;;;;;;6.02;67.51;99714.47;10459678;28;20056;-71
2021/10/22 06:06:29;;;;;;;6.18;1.98;;;;;;;6.02;67.61;99731.00;10459248;28;20037;-72
2021/10/22 06:11:31;;;;;;;4.75;1.30;;;;;;;6.04;67.32;99736.19;10458667;28;20044;-70
2021/10/22 06:16:33;;;;;;;7.25;1.92;;;;;;;6.10;66.96;99740.41;10460196;28;20041;-71
2021/10/22 06:22:09;;;;;;;7.43;2.13;;;;;;;6.21;66.47;99741.09;10458466;28;20099;-72
2021/10/22 06:26:57;;;;;;;7.90;1.58;;;;;;;6.24;66.52;99747.13;10458366;28;20509;-71
2021/10/22 06:31:59;;;;;;;7.45;1.58;;;;;;;6.31;65.97;99753.94;10459217;28;20057;-70
2021/10/22 06:37:00;;;;;;;4.72;1.20;;;;;;;6.30;66.17;99748.75;10458414;28;20483;-72
2021/10/22 06:42:02;;;;;;;7.50;1.77;;;;;;;6.27;66.02;99756.63;10458633;28;20106;-71
2021/10/22 06:47:05;;;;;;;5.65;1.52;;;;;;;6.33;65.67;99774.81;10457349;28;20045;-72
2021/10/22 06:52:07;;;;;;;13.23;1.67;;;;;;;6.33;66.00;99774.81;10456768;28;20048;-72
2021/10/22 06:57:09;;;;;;;5.28;1.50;;;;;;;6.30;65.88;99791.38;10453145;28;20396;-72
2021/10/22 07:02:10;;;;;;;8.10;1.25;;;;;;;6.48;65.21;99782.34;10452503;28;20049;-73
2021/10/22 07:07:15;;;;;;;8.95;1.63;;;;;;;6.62;64.42;99795.13;10456485;28;20410;-72
2021/10/22 07:12:17;;;;;;;6.57;1.45;;;;;;;6.74;63.74;99775.75;10458330;28;20106;-71
2021/10/22 07:17:18;;;;;;;7.35;1.52;;;;;;;6.88;63.35;99773.72;10458263;28;20482;-71
2021/10/22 07:22:29;;;;;;;5.82;1.67;;;;;;;6.90;63.28;99782.34;10457668;28;20053;-71
2021/10/22 07:27:31;;;;;;;8.50;1.55;;;;;;;6.95;63.73;99791.00;10458442;28;20045;-71
2021/10/22 07:32:33;;;;;;;6.10;1.50;;;;;;;7.13;62.60;99778.41;10439775;28;20474;-71
2021/10/22 07:37:35;;;;;;;3.97;1.50;;;;;;;7.26;62.30;99779.84;10456978;28;20410;-71
2021/10/22 07:42:37;;;;;;;9.25;1.70;;;;;;;7.32;61.54;99791.03;10456418;28;20095;-71
2021/10/22 07:47:39;;;;;;;8.57;2.03;;;;;;;7.49;60.95;99800.28;10456150;28;20045;-71
2021/10/22 07:52:40;;;;;;;8.38;1.52;;;;;;;7.57;61.33;99796.59;10463152;28;20041;-70
2021/10/22 07:57:42;;;;;;;6.00;1.10;;;;;;;7.63;60.68;99789.47;10463721;28;20456;-72
2021/10/22 08:02:44;;;;;;;9.70;1.58;;;;;;;7.66;61.52;99784.16;10462579;28;20045;-71
2021/10/22 08:07:46;;;;;;;5.47;1.33;;;;;;;7.75;60.54;99771.75;10464453;28;20598;-72
2021/10/22 08:12:47;;;;;;;10.10;1.73;;;;;;;7.89;59.69;99776.63;10463326;28;20183;-71
2021/10/22 08:18:01;;;;;;;7.05;2.03;;;;;;;7.83;60.03;99761.06;10463867;28;20137;-71
2021/10/22 08:23:04;;;;;;;6.60;1.52;;;;;;;8.11;59.75;99774.31;10464487;28;20077;-70
2021/10/22 08:28:05;;;;;;;9.13;1.80;;;;;;;8.00;59.34;99766.72;10462391;28;20053;-73
2021/10/22 08:33:10;;;;;;;5.35;1.20;;;;;;;8.14;59.15;99757.66;10446210;28;20045;-71
2021/10/22 08:38:12;;;;;;;9.32;1.70;;;;;;;8.29;58.56;99747.66;10462644;28;20057;-72
2021/10/22 08:43:13;;;;;;;5.50;1.88;;;;;;;8.34;58.34;99742.28;10462878;28;20040;-72
2021/10/22 08:48:15;;;;;;;3.72;1.27;;;;;;;8.43;57.90;99773.50;10462975;28;20041;-71
2021/10/22 08:53:16;;;;;;;5.63;1.42;;;;;;;8.39;57.56;99761.38;10461961;28;20106;-71
2021/10/22 08:58:19;;;;;;;8.25;2.08;;;;;;;8.48;57.79;99768.13;10463343;28;20048;-71
2021/10/22 09:03:21;;;;;;;4.38;1.50;;;;;;;8.68;57.45;99783.31;10461456;28;20064;-71
2021/10/22 09:08:29;;;;;;;7.82;1.95;;;;;;;8.62;55.66;99786.09;10462134;28;20109;-71
2021/10/22 09:13:34;;;;;;;7.05;1.58;;;;;;;8.82;55.97;99781.16;10460859;28;20049;-72
2021/10/22 09:18:39;;;;;;;5.75;1.63;;;;;;;8.72;55.75;99774.44;10461976;28;20056;-72
2021/10/22 09:23:41;;;;;;;4.95;1.50;;;;;;;8.75;55.04;99766.50;10461316;28;20053;-71
2021/10/22 09:28:44;;;;;;;5.43;1.30;;;;;;;8.96;54.61;99751.91;10461155;28;20077;-70
2021/10/22 09:33:54;;;;;;;5.60;1.20;;;;;;;9.02;54.02;99768.31;10460692;28;20106;-71
2021/10/22 09:39:22;;;;;;;5.30;1.35;;;;;;;9.05;53.07;99741.16;10459295;28;20049;-70
2021/10/22 09:44:37;;;;;;;4.60;1.40;;;;;;;9.11;52.76;99748.81;10458157;28;20059;-70
2021/10/22 09:49:41;;;;;;;3.85;1.10;;;;;;;9.22;50.90;99769.50;10461533;28;20060;-71
2021/10/22 09:54:42;;;;;;;3.08;1.13;;;;;;;9.20;50.71;99766.03;10458975;28;20052;-71
2021/10/22 09:59:44;;;;;;;6.00;1.30;;;;;;;9.41;51.46;99770.63;10472072;22;20049;-70
2021/10/22 10:04:46;;;;;;;6.70;1.30;;;;;;;9.64;51.29;99753.31;10457480;28;20103;-70
2021/10/22 10:09:49;;;;;;;4.25;1.65;;;;;;;9.91;49.85;99748.91;10459692;28;20045;-69
2021/10/22 10:14:51;;;;;;;4.90;1.40;;;;;;;10.01;49.22;99740.69;10460808;28;20045;-69
2021/10/22 10:19:56;;;;;;;5.60;1.40;;;;;;;10.16;48.74;99752.41;10463126;28;20041;-70
2021/10/22 10:25:03;;;;;;;4.95;1.20;;;;;;;10.26;47.09;99724.94;10460070;28;20041;-69
2021/10/22 10:30:08;;;;;;;5.40;1.25;;;;;;;10.43;47.11;99716.47;10459722;28;20072;-69
2021/10/22 10:35:13;;;;;;;4.40;1.10;;;;;;;10.63;46.76;99721.00;10460381;28;20411;-69
2021/10/22 10:40:29;;;;;;;5.03;1.48;;;;;;;10.74;46.36;99715.34;10458872;28;20549;-69
2021/10/22 10:45:31;;;;;;;5.93;1.30;;;;;;;10.94;45.61;99711.97;10455952;28;20041;-69
2021/10/22 10:50:57;;;;;;;4.95;1.20;;;;;;;10.94;44.64;99717.22;10455810;28;20120;-69
2021/10/22 10:56:21;;;;;;;4.63;1.30;;;;;;;11.21;44.49;99695.09;10457662;28;20037;-69
2021/10/22 11:01:30;;;;;;;7.45;1.33;;;;;;;11.35;44.52;99703.28;10456625;28;20045;-69
2021/10/22 11:06:38;;;;;;;5.45;1.38;;;;;;;11.24;44.36;99694.97;10457462;28;20401;-70
2021/10/22 11:11:41;;;;;;;5.07;1.30;;;;;;;11.10;44.82;99698.13;10460840;28;20409;-69
2021/10/22 11:16:47;;;;;;;3.35;1.08;;;;;;;11.52;44.76;99694.72;10459073;28;20041;-69
2021/10/22 11:21:52;;;;;;;3.67;1.00;;;;;;;11.71;45.03;99712.38;10443544;28;20154;-70
2021/10/22 11:27:34;;;;;;;4.82;1.33;;;;;;;11.69;44.27;99690.53;10464878;28;20068;-71
2021/10/22 11:32:36;;;;;;;3.03;0.90;;;;;;;11.43;44.46;99695.09;10341476;28;20062;-69
2021/10/22 11:37:39;;;;;;;4.93;1.08;;;;;;;11.31;44.93;99709.59;10339874;28;20050;-70
2021/10/22 11:42:41;;;;;;;5.10;1.10;;;;;;;11.17;45.18;99698.78;10340419;28;20050;-70
2021/10/22 11:47:55;;;;;;;4.93;1.63;;;;;;;11.04;45.20;99703.66;10324219;28;20510;-70
2021/10/22 11:53:14;;;;;;;4.97;1.00;;;;;;;10.71;46.45;99687.38;10339680;28;20141;-69
2021/10/22 11:58:21;;;;;;;3.80;1.05;;;;;;;10.74;47.08;99696.94;10340211;28;20042;-70
2021/10/22 12:03:36;;;;;;;5.28;1.08;;;;;;;10.46;47.36;99712.88;10323808;28;20054;-71
2021/10/22 12:08:38;;;;;;;4.50;1.23;;;;;;;10.48;46.98;99717.16;10413357;28;20052;-70
2021/10/22 12:13:44;;;;;;;2.40;0.90;;;;;;;10.45;47.67;99705.91;10448026;28;20059;-70
2021/10/22 12:18:59;;;;;;;4.28;1.25;;;;;;;10.46;47.20;99699.75;10466980;28;20091;-70
2021/10/22 12:24:03;;;;;;;5.78;1.33;;;;;;;10.44;48.02;99707.66;10465768;28;20128;-70
2021/10/22 12:29:08;;;;;;;4.03;1.08;;;;;;;10.54;48.58;99709.06;10447266;28;20456;-69
2021/10/22 12:34:10;;;;;;;4.93;1.42;;;;;;;10.56;47.30;99696.72;10466582;28;20045;-70
2021/10/22 12:39:22;;;;;;;4.63;1.25;;;;;;;10.33;47.88;99709.84;10467518;28;20060;-71
2021/10/22 12:44:31;;;;;;;5.72;1.30;;;;;;;10.10;48.68;99705.38;10465399;28;20041;-71
2021/10/22 12:49:33;;;;;;;4.35;1.13;;;;;;;10.15;48.61;99706.06;10466613;28;20045;-70
2021/10/22 12:54:45;;;;;;;5.43;1.10;;;;;;;10.11;49.04;99704.44;10467011;28;20037;-69
2021/10/22 12:59:47;;;;;;;4.40;1.10;;;;;;;10.25;49.27;99699.59;10447365;28;20045;-71
2021/10/22 13:05:12;;;;;;;5.47;1.30;;;;;;;10.32;49.12;99701.09;10464880;28;20055;-70
2021/10/22 13:10:23;;;;;;;3.15;0.88;;;;;;;10.43;48.58;99705.94;10465708;28;20051;-69
2021/10/22 13:20:45;;;;;;;4.72;1.10;;;;;;;10.22;49.45;99718.03;10463868;28;20052;-69
2021/10/22 13:25:50;;;;;;;3.45;1.05;;;;;;;10.29;50.03;99697.72;10466188;28;20045;-70
2021/10/22 13:36:06;;;;;;;5.70;1.50;;;;;;;10.43;49.16;99699.84;10464370;28;20041;-69
2021/10/22 13:41:08;;;;;;;4.05;1.00;;;;;;;10.54;49.11;99697.69;10465167;28;20461;-69
2021/10/22 13:46:10;;;;;;;2.92;0.90;;;;;;;10.55;49.47;99691.50;10461120;28;20040;-69
2021/10/22 13:51:12;;;;;;;4.40;1.23;;;;;;;10.56;48.99;99688.81;10461828;28;20402;-69
2021/10/22 13:56:14;;;;;;;6.75;1.10;;;;;;;10.32;50.02;99692.38;10467143;28;20049;-70
2021/10/22 14:01:16;;;;;;;4.38;1.45;;;;;;;10.32;49.78;99689.75;10463450;28;20045;-70
2021/10/22 14:06:18;;;;;;;3.10;1.10;;;;;;;10.27;50.26;99671.50;10463980;28;20513;-68
2021/10/22 14:11:25;;;;;;;4.63;1.00;;;;;;;10.27;50.17;99674.16;10468339;28;20071;-69
2021/10/22 14:16:38;;;;;;;3.28;1.10;;;;;;;10.32;49.70;99672.19;10461684;28;20140;-69
2021/10/22 14:32:29;;;;;;;5.75;1.60;;;;;;;10.32;49.92;99674.84;10298567;28;20055;-69
2021/10/22 14:37:32;;;;;;;7.40;1.17;;;;;;;10.29;49.85;99677.56;10282486;28;20055;-70
2021/10/22 14:42:34;;;;;;;5.20;1.23;;;;;;;10.37;49.54;99665.94;10299800;28;20065;-70
2021/10/22 14:47:41;;;;;;;4.88;1.35;;;;;;;10.27;50.05;99679.41;10281390;28;20046;-70
2021/10/22 14:57:46;;;;;;;4.10;0.90;;;;;;;10.41;48.91;99662.28;10279285;28;20051;-68
2021/10/22 15:02:49;;;;;;;4.57;1.00;;;;;;;10.46;49.38;99663.81;10303472;28;20567;-69
2021/10/22 15:07:51;;;;;;;2.25;0.80;;;;;;;10.35;50.08;99673.84;10384186;28;20139;-69
2021/10/22 15:12:53;;;;;;;6.00;1.10;;;;;;;10.48;49.85;99658.47;10508051;28;20036;-70
2021/10/22 15:17:55;;;;;;;3.60;1.13;;;;;;;10.39;50.17;99650.94;10514947;28;20506;-70
2021/10/22 15:22:57;;;;;;;5.30;1.30;;;;;;;10.28;50.11;99652.22;10512635;28;20053;-69
2021/10/22 15:27:59;;;;;;;4.85;1.60;;;;;;;10.26;49.83;99661.91;10493172;28;20103;-69
2021/10/22 15:33:01;;;;;;;4.53;1.30;;;;;;;10.14;50.11;99650.94;10470439;28;20037;-70
2021/10/22 15:38:03;;;;;;;2.58;1.30;;;;;;;10.14;50.00;99671.94;10468485;28;20529;-70
2021/10/22 15:43:06;;;;;;;5.70;1.60;;;;;;;10.09;50.37;99678.25;10467996;28;20055;-70
2021/10/22 15:48:08;;;;;;;4.65;1.10;;;;;;;10.08;50.48;99684.41;10468681;28;20037;-70
2021/10/22 15:53:09;;;;;;;5.03;1.30;;;;;;;10.09;50.21;99694.00;10466756;28;20053;-70
2021/10/22 15:58:11;;;;;;;3.22;1.20;;;;;;;10.17;50.34;99691.09;10468595;28;20069;-69
2021/10/22 16:03:14;;;;;;;3.70;1.20;;;;;;;10.11;50.18;99686.91;10506972;22;20063;-72
2021/10/22 16:08:41;;;;;;;5.32;0.98;;;;;;;10.21;49.93;99689.22;10505114;28;20435;-73
2021/10/22 16:13:49;;;;;;;3.20;0.80;;;;;;;10.19;49.79;99688.44;10502584;28;20053;-72
2021/10/22 16:18:50;;;;;;;4.22;0.82;;;;;;;10.23;50.12;99692.66;10503043;28;20048;-72
2021/10/22 16:23:53;;;;;;;4.78;1.35;;;;;;;10.23;49.74;99698.78;10503639;28;20052;-72
2021/10/22 16:28:54;;;;;;;3.45;1.38;;;;;;;10.23;49.85;99708.44;10503510;28;20079;-72
2021/10/22 16:39:17;;;;;;;2.20;0.75;;;;;;;10.23;50.05;99719.78;10503309;28;20036;-72
2021/10/22 16:44:37;;;;;;;3.35;0.80;;;;;;;10.20;50.10;99719.88;10501842;28;20052;-71
2021/10/22 16:49:39;;;;;;;4.60;0.82;;;;;;;10.11;50.83;99735.97;10502461;28;20063;-72
2021/10/22 16:54:42;;;;;;;5.88;1.73;;;;;;;10.14;50.64;99753.38;10502404;28;20056;-72
2021/10/22 16:59:43;;;;;;;7.22;1.33;;;;;;;10.17;50.68;99761.16;10501494;28;20055;-72
2021/10/22 17:04:47;;;;;;;3.85;1.30;;;;;;;10.18;50.69;99781.25;10502815;28;20032;-72
2021/10/22 17:09:56;;;;;;;2.53;0.90;;;;;;;10.17;50.78;99792.66;10484680;28;20472;-72
2021/10/22 17:14:57;;;;;;;3.25;0.90;;;;;;;10.05;51.80;99789.56;10502141;28;20051;-73
2021/10/22 17:19:59;;;;;;;3.78;1.13;;;;;;;10.08;51.74;99794.69;10502664;28;20083;-72
2021/10/22 17:25:07;;;;;;;3.13;0.87;;;;;;;10.08;51.56;99802.56;10501019;28;20485;-72
2021/10/22 17:30:10;;;;;;;5.50;1.52;;;;;;;10.10;51.97;99828.81;10500946;28;20044;-72
2021/10/22 17:35:13;;;;;;;8.52;1.00;;;;;;;10.02;52.77;99831.69;10484970;28;20074;-72
2021/10/22 17:40:15;;;;;;;4.25;1.00;;;;;;;9.91;55.40;99859.19;10501509;28;20054;-73
2021/10/22 17:45:18;;;;;;;2.67;1.10;;;;;;;9.67;57.43;99881.81;10501275;28;20041;-73
2021/10/22 17:50:20;;;;;;;3.97;1.10;;;;;;;9.54;58.40;99884.78;10500482;28;20048;-72
2021/10/22 17:55:22;;;;;;;3.75;1.33;;;;;;;9.27;61.39;99899.59;10500837;28;20382;-71
2021/10/22 18:00:23;;;;;;;3.47;1.08;;;;;;;9.03;63.10;99911.63;10500498;28;20052;-72
2021/10/22 18:05:25;;;;;;;4.15;1.20;;;;;;;8.95;63.81;99931.94;10500570;28;20394;-72
2021/10/22 18:10:27;;;;;;;3.38;1.30;;;;;;;8.71;65.91;99930.81;10500446;28;20382;-71
2021/10/22 18:15:28;;;;;;;3.83;1.40;;;;;;;8.68;66.60;99932.69;10500698;28;20090;-72
2021/10/22 18:20:30;;;;;;;4.13;1.30;;;;;;;8.58;68.51;99948.59;10498828;28;20044;-72
2021/10/22 18:25:33;;;;;;;6.13;1.40;;;;;;;8.49;70.64;99961.94;10500646;28;20037;-71
2021/10/22 18:30:34;;;;;;;3.40;1.27;;;;;;;8.26;71.65;99972.06;10500817;28;20048;-72
2021/10/22 18:35:36;;;;;;;4.70;1.40;;;;;;;8.21;73.35;99973.94;10500346;28;20452;-72
2021/10/22 18:40:39;;;;;;;3.33;1.00;;;;;;;8.22;71.87;99973.91;10500234;28;20044;-72
2021/10/22 18:45:41;;;;;;;4.40;1.05;;;;;;;8.02;73.27;99969.13;10500093;28;20082;-72
2021/10/22 18:50:42;;;;;;;3.35;1.05;;;;;;;7.95;73.66;99958.81;10499950;28;20052;-72
2021/10/22 18:55:44;;;;;;;2.28;1.17;;;;;;;7.87;74.40;99969.44;10499901;28;20056;-72
2021/10/22 19:00:47;;;;;;;1.90;1.00;;;;;;;7.94;73.82;99973.66;10500221;28;20089;-74
2021/10/22 19:06:00;;;;;;;3.83;0.90;;;;;;;7.81;74.40;99974.81;10498214;28;20040;-74
2021/10/22 19:11:06;;;;;;;3.65;1.10;;;;;;;7.76;75.32;99987.16;10498488;28;20058;-73
2021/10/22 19:16:07;;;;;;;2.80;1.35;;;;;;;7.82;75.59;99989.63;10500032;28;20044;-73
2021/10/22 19:21:09;;;;;;;3.35;1.23;;;;;;;7.75;77.09;99991.53;10497625;28;20045;-73
2021/10/22 19:26:11;;;;;;;4.10;1.33;;;;;;;7.80;77.27;99999.28;10499114;28;20386;-73
2021/10/22 19:31:15;;;;;;;4.38;1.20;;;;;;;7.86;76.53;100011.38;10497409;28;20061;-72
2021/10/22 19:36:18;;;;;;;5.47;1.67;;;;;;;7.82;76.87;100024.50;10497213;28;20398;-73
2021/10/22 19:41:21;;;;;;;4.72;1.10;;;;;;;7.78;77.40;100029.84;10499141;28;20452;-73
2021/10/22 19:46:23;;;;;;;2.88;0.90;;;;;;;7.77;77.68;100038.59;10500730;28;20032;-73
2021/10/22 19:51:26;;;;;;;3.17;1.05;;;;;;;7.82;77.37;100053.28;10507095;28;20405;-75
2021/10/22 19:56:28;;;;;;;3.45;0.98;;;;;;;7.80;76.30;100057.72;10507104;28;20070;-74
2021/10/22 20:01:31;;;;;;;1.55;0.77;;;;;;;7.81;76.68;100069.03;10508609;28;20041;-73
2021/10/22 20:06:33;;;;;;;3.13;0.80;;;;;;;7.88;76.16;100078.50;10507699;28;20048;-73
2021/10/22 20:11:35;;;;;;;1.45;0.70;;;;;;;7.91;75.95;100085.41;10505372;28;20102;-73
2021/10/22 20:16:37;;;;;;;2.33;1.08;;;;;;;7.95;75.66;100097.53;10505319;28;20044;-73
2021/10/22 20:21:40;;;;;;;3.13;0.60;;;;;;;7.87;75.84;100120.38;10505817;28;20055;-73
2021/10/22 20:26:41;;;;;;;4.75;0.75;;;;;;;7.88;75.71;100125.59;10488245;28;20118;-73
2021/10/22 20:31:43;;;;;;;2.25;0.65;;;;;;;7.91;76.18;100135.13;10506723;28;20047;-72
2021/10/22 20:36:46;;;;;;;3.03;0.77;;;;;;;7.87;76.55;100138.69;10507004;28;20036;-73
2021/10/22 20:41:48;;;;;;;2.97;0.82;;;;;;;7.93;76.46;100151.69;10505297;28;20057;-73
2021/10/22 20:46:54;;;;;;;2.28;0.60;;;;;;;7.90;76.59;100165.69;10488456;28;20041;-73
2021/10/22 20:57:27;;;;;;;2.10;0.80;;;;;;;7.84;75.71;100189.38;10504356;28;20045;-73
2021/10/22 21:02:28;;;;;;;3.15;1.05;;;;;;;7.91;75.15;100188.34;10504840;28;20039;-73
2021/10/22 21:07:30;;;;;;;2.90;0.80;;;;;;;7.84;72.22;100182.38;10505690;28;20119;-72
2021/10/22 21:12:32;;;;;;;3.40;0.73;;;;;;;7.49;72.85;100182.13;10505642;28;20048;-72
2021/10/22 21:17:34;;;;;;;2.38;0.93;;;;;;;7.43;71.78;100196.16;10504884;28;20032;-73
2021/10/22 21:22:36;;;;;;;1.65;0.70;;;;;;;7.11;74.48;100212.34;10486300;28;20059;-73
2021/10/22 21:27:37;;;;;;;1.73;0.80;;;;;;;7.19;75.54;100217.47;10504552;28;20060;-73
2021/10/22 21:32:40;;;;;;;3.50;1.45;;;;;;;7.25;75.83;100230.44;10504123;28;20048;-73
2021/10/22 21:37:42;;;;;;;2.58;1.00;;;;;;;7.12;76.37;100242.81;10501801;28;20051;-73
2021/10/22 21:42:43;;;;;;;3.33;0.80;;;;;;;7.19;76.79;100254.06;10502245;28;20045;-72
2021/10/22 21:47:46;;;;;;;4.18;1.02;;;;;;;7.28;76.96;100248.69;10502863;28;20083;-73
2021/10/22 21:52:47;;;;;;;4.38;0.88;;;;;;;7.21;77.50;100247.91;10502275;28;20045;-74
2021/10/22 21:57:49;;;;;;;4.05;1.10;;;;;;;7.31;76.60;100261.75;10502574;28;20045;-73
2021/10/22 22:02:50;;;;;;;3.15;0.80;;;;;;;7.40;75.94;100265.97;10502030;28;20402;-73
2021/10/22 22:07:52;;;;;;;4.18;0.70;;;;;;;7.34;76.38;100266.91;10499904;28;20040;-73
2021/10/22 22:12:54;;;;;;;2.88;0.70;;;;;;;7.46;75.69;100277.19;10501630;28;20048;-72
2021/10/22 22:17:56;;;;;;;2.80;0.60;;;;;;;7.46;75.83;100276.31;10500452;28;20040;-73
2021/10/22 22:22:58;;;;;;;2.42;0.50;;;;;;;7.49;75.08;100282.38;10501198;28;20076;-72
2021/10/22 22:28:00;;;;;;;1.52;0.60;;;;;;;7.52;74.88;100294.53;10501609;28;20498;-74
2021/10/22 22:33:01;;;;;;;2.78;0.63;;;;;;;7.43;73.28;100305.13;10501305;28;20094;-72
2021/10/22 22:38:03;;;;;;;6.55;0.68;;;;;;;7.45;71.95;100324.31;10500767;28;20036;-72
2021/10/22 22:43:06;;;;;;;3.70;0.65;;;;;;;7.32;72.08;100321.00;10499778;28;20056;-74
2021/10/22 22:48:08;;;;;;;3.63;0.80;;;;;;;7.25;71.25;100316.72;10501225;28;20045;-72
2021/10/22 22:53:09;;;;;;;2.90;0.60;;;;;;;7.16;71.36;100329.91;10499916;28;20094;-72
2021/10/22 22:58:11;;;;;;;2.22;0.88;;;;;;;6.96;71.50;100341.50;10498111;28;20055;-73
2021/10/22 23:03:13;;;;;;;3.60;0.63;;;;;;;6.92;70.66;100338.94;10499126;28;20051;-73
2021/10/22 23:08:15;;;;;;;2.40;0.95;;;;;;;6.76;71.06;100346.94;10499222;28;20064;-72
2021/10/22 23:13:17;;;;;;;4.05;0.80;;;;;;;6.66;71.72;100352.31;10498859;28;20044;-73
2021/10/22 23:18:18;;;;;;;3.33;0.90;;;;;;;6.49;72.36;100361.16;10497972;28;20041;-73
2021/10/22 23:23:20;;;;;;;5.00;0.85;;;;;;;6.46;72.40;100373.38;10504162;28;20078;-73
2021/10/22 23:28:21;;;;;;;3.65;0.75;;;;;;;6.44;72.85;100383.84;10507142;28;20037;-72
2021/10/22 23:33:23;;;;;;;4.18;1.35;;;;;;;6.32;72.66;100390.03;10506392;28;20045;-73
2021/10/22 23:38:25;;;;;;;8.38;0.90;;;;;;;6.24;73.30;100406.66;10506531;28;20395;-73
2021/10/22 23:43:27;;;;;;;4.13;0.95;;;;;;;6.19;72.91;100403.22;10506553;28;20048;-73
2021/10/22 23:48:28;;;;;;;3.20;1.35;;;;;;;6.15;73.66;100411.94;10506126;28;20512;-73
2021/10/22 23:53:30;;;;;;;3.88;1.15;;;;;;;6.20;73.30;100429.31;10505311;28;20036;-73
2021/10/22 23:58:32;;;;;;;4.95;1.10;;;;;;;6.20;73.69;100428.47;10505844;28;20053;-73
